Time;durP1;ratioP1;P1;durP2;ratioP2;P2;SDS_P1;SDS_P2;PMS_P1;PMS_P2;Temp;Humidity;BMP_temperature;BMP_pressure;BME280_temperature;BME280_humidity;BME280_pressure;Samples;Min_cycle;Max_cycle;Signal;HPM_P1;HPM_P2
2021/07/24 00:02:16;;;;;;;11.43;4.35;;;;;;;19.14;63.90;100426.91;5014458;28;20041;-70
2021/07/24 00:04:42;;;;;;;7.57;4.03;;;;;;;19.08;63.84;100424.28;5014677;28;20030;-70
2021/07/24 00:07:07;;;;;;;9.25;4.45;;;;;;;19.28;62.96;100420.78;5014704;28;20026;-70
2021/07/24 00:09:33;;;;;;;13.15;4.38;;;;;;;19.41;62.69;100422.53;5014432;28;20025;-70
2021/07/24 00:11:58;;;;;;;7.70;4.30;;;;;;;19.48;62.44;100408.56;5014122;28;20049;-70
2021/07/24 00:14:24;;;;;;;6.93;4.10;;;;;;;19.45;62.71;100398.13;5014412;28;20026;-69
2021/07/24 00:16:50;;;;;;;9.35;4.32;;;;;;;19.48;63.10;100402.47;5014354;28;20507;-70
2021/07/24 00:19:15;;;;;;;7.55;4.45;;;;;;;19.53;63.44;100405.97;5014019;28;20506;-69
2021/07/24 00:21:41;;;;;;;10.23;4.40;;;;;;;19.65;63.85;100411.19;5014187;28;20026;-72
2021/07/24 00:24:06;;;;;;;7.30;4.20;;;;;;;19.77;63.97;100410.28;5013995;28;20029;-72
2021/07/24 00:26:32;;;;;;;9.88;4.90;;;;;;;19.90;63.74;100410.28;5014171;28;20022;-70
2021/07/24 00:28:57;;;;;;;6.93;4.10;;;;;;;20.03;63.20;100412.88;5013920;28;20107;-69
2021/07/24 00:31:23;;;;;;;7.85;4.13;;;;;;;20.14;62.77;100409.34;5013899;28;20025;-70
2021/07/24 00:33:48;;;;;;;12.05;5.30;;;;;;;20.12;63.00;100398.00;5013955;28;20052;-69
2021/07/24 00:36:14;;;;;;;5.60;4.15;;;;;;;20.16;62.74;100412.81;5014163;28;20022;-70
2021/07/24 00:38:40;;;;;;;9.27;4.72;;;;;;;19.80;63.16;100407.66;5013665;28;20037;-69
2021/07/24 00:41:31;;;;;;;12.10;5.63;;;;;;;19.65;63.47;100416.44;5013997;28;20037;-70
2021/07/24 00:44:01;;;;;;;13.35;5.10;;;;;;;19.43;63.72;100409.44;5013793;28;20033;-69
2021/07/24 00:46:31;;;;;;;9.70;4.88;;;;;;;19.39;63.99;100406.84;5013779;28;20052;-69
2021/07/24 00:48:59;;;;;;;7.22;5.00;;;;;;;19.40;63.26;100405.97;5013313;28;20034;-69
2021/07/24 00:51:28;;;;;;;9.30;5.13;;;;;;;19.28;63.37;100407.69;5013456;28;20030;-71
2021/07/24 00:53:55;;;;;;;7.03;4.55;;;;;;;19.05;64.03;100404.22;5012239;28;20050;-69
2021/07/24 00:56:24;;;;;;;10.27;5.03;;;;;;;19.02;64.60;100403.34;5013661;28;20025;-69
2021/07/24 00:58:49;;;;;;;10.30;5.38;;;;;;;19.04;64.65;100407.69;5013449;28;20127;-73
2021/07/24 01:01:15;;;;;;;11.48;5.10;;;;;;;18.98;64.12;100365.84;5013862;28;20061;-71
2021/07/24 01:03:40;;;;;;;8.00;5.40;;;;;;;19.22;64.84;100401.59;5013515;28;20036;-69
2021/07/24 01:06:06;;;;;;;8.75;5.00;;;;;;;18.97;65.77;100390.25;5013611;28;20025;-69
2021/07/24 01:08:33;;;;;;;8.88;4.35;;;;;;;18.98;66.49;100393.72;5013280;28;20495;-72
2021/07/24 01:10:58;;;;;;;9.55;4.82;;;;;;;18.86;67.26;100395.41;5013055;28;20439;-69
2021/07/24 01:13:24;;;;;;;8.80;5.07;;;;;;;18.85;66.94;100392.81;5012771;28;20026;-73
2021/07/24 01:15:51;;;;;;;8.57;5.00;;;;;;;18.82;67.03;100383.22;5013473;28;20048;-70
2021/07/24 01:18:17;;;;;;;6.68;4.43;;;;;;;18.90;67.16;100385.84;4995745;28;20510;-69
2021/07/24 01:20:44;;;;;;;10.20;4.82;;;;;;;19.06;66.35;100398.09;5013261;28;20057;-70
2021/07/24 01:23:11;;;;;;;10.93;5.70;;;;;;;19.10;66.51;100396.34;4995505;28;20081;-69
2021/07/24 01:25:51;;;;;;;9.43;5.53;;;;;;;19.29;65.52;100388.50;5013017;28;20554;-72
2021/07/24 01:28:25;;;;;;;9.90;5.35;;;;;;;19.17;65.74;100358.84;5019438;28;20032;-69
2021/07/24 01:30:51;;;;;;;7.85;5.40;;;;;;;19.45;65.03;100387.66;5015616;28;20030;-70
2021/07/24 01:33:17;;;;;;;10.70;5.43;;;;;;;19.55;64.69;100386.75;5013062;28;20040;-70
2021/07/24 01:35:49;;;;;;;11.45;4.85;;;;;;;19.50;64.14;100367.56;5013030;28;20038;-73
2021/07/24 01:38:16;;;;;;;8.45;4.28;;;;;;;19.62;62.93;100381.50;5011881;28;20097;-70
2021/07/24 01:40:42;;;;;;;7.07;4.20;;;;;;;19.69;61.22;100381.50;5012696;28;20026;-69
2021/07/24 01:43:08;;;;;;;8.73;4.35;;;;;;;19.77;60.60;100381.47;5012492;28;20397;-70
2021/07/24 01:45:34;;;;;;;7.68;4.80;;;;;;;19.76;60.73;100382.34;5012500;28;20029;-70
2021/07/24 01:48:01;;;;;;;9.60;4.07;;;;;;;19.82;59.96;100379.69;5012548;28;20491;-70
2021/07/24 01:53:11;;;;;;;7.72;4.88;;;;;;;18.75;64.10;100379.72;5012207;28;20123;-72
2021/07/24 01:55:47;;;;;;;7.28;4.38;;;;;;;18.58;64.75;100386.66;5011936;28;20026;-71
2021/07/24 01:58:19;;;;;;;8.32;5.10;;;;;;;18.46;65.27;100370.94;5012445;28;20041;-70
2021/07/24 02:00:44;;;;;;;9.98;4.45;;;;;;;18.44;65.48;100376.16;5012543;28;20484;-69
2021/07/24 02:03:13;;;;;;;12.75;5.25;;;;;;;18.43;63.98;100343.06;5012341;28;20034;-70
2021/07/24 02:05:43;;;;;;;7.73;4.83;;;;;;;18.76;64.17;100370.13;5012685;28;20117;-70
2021/07/24 02:08:11;;;;;;;7.38;4.55;;;;;;;18.81;62.97;100367.53;5012210;28;20092;-69
2021/07/24 02:10:40;;;;;;;9.07;4.75;;;;;;;19.03;62.11;100381.53;4993686;28;20038;-70
2021/07/24 02:13:05;;;;;;;10.70;4.97;;;;;;;19.07;62.17;100380.66;5012462;28;20033;-70
2021/07/24 02:15:32;;;;;;;9.02;4.72;;;;;;;19.01;61.82;100346.66;5011920;28;20030;-72
2021/07/24 02:18:00;;;;;;;11.65;4.45;;;;;;;19.16;61.82;100385.88;5012213;28;20047;-73
2021/07/24 02:20:26;;;;;;;7.22;4.70;;;;;;;19.06;61.86;100384.16;5012077;28;20538;-70
2021/07/24 02:23:12;;;;;;;11.55;5.00;;;;;;;19.03;62.05;100373.69;5011918;28;20488;-70
2021/07/24 02:25:38;;;;;;;9.68;4.45;;;;;;;19.06;61.84;100385.00;4989842;28;20480;-73
2021/07/24 02:28:03;;;;;;;12.95;4.85;;;;;;;19.08;61.77;100382.41;4990099;28;20042;-70
2021/07/24 02:30:29;;;;;;;7.72;4.72;;;;;;;19.08;61.72;100385.88;4989817;28;20046;-70
2021/07/24 02:32:54;;;;;;;10.52;4.85;;;;;;;19.15;61.52;100385.91;4989982;28;20083;-70
2021/07/24 02:35:20;;;;;;;21.40;6.65;;;;;;;19.16;61.27;100391.13;4989735;28;20108;-70
2021/07/24 02:37:45;;;;;;;15.82;5.00;;;;;;;19.11;61.53;100381.53;4989963;28;20107;-70
2021/07/24 02:40:11;;;;;;;10.88;5.00;;;;;;;19.13;61.06;100380.66;4989855;28;20752;-69
2021/07/24 02:42:37;;;;;;;15.48;5.20;;;;;;;19.26;60.58;100386.75;4989576;28;20134;-69
2021/07/24 02:45:03;;;;;;;11.05;5.30;;;;;;;19.13;60.85;100385.91;4989726;28;20100;-73
2021/07/24 02:47:29;;;;;;;11.20;5.57;;;;;;;19.28;60.38;100384.13;4989814;28;20423;-70
2021/07/24 02:49:55;;;;;;;17.38;5.30;;;;;;;19.12;60.22;100357.13;4989409;28;20031;-70
2021/07/24 02:52:20;;;;;;;14.38;4.95;;;;;;;19.26;59.88;100380.66;4989811;28;20042;-70
2021/07/24 02:54:45;;;;;;;11.80;5.20;;;;;;;19.10;60.44;100375.41;4989412;28;20606;-69
2021/07/24 02:57:11;;;;;;;14.00;5.82;;;;;;;19.18;60.35;100378.06;5005801;28;20076;-69
2021/07/24 02:59:36;;;;;;;13.93;5.13;;;;;;;19.20;60.08;100377.19;5011633;28;20464;-69
2021/07/24 03:02:02;;;;;;;13.98;5.78;;;;;;;19.16;60.29;100392.88;5022484;28;20399;-69
2021/07/24 03:04:28;;;;;;;9.88;5.18;;;;;;;19.00;60.55;100398.09;5030964;28;20037;-71
2021/07/24 03:06:54;;;;;;;13.82;5.72;;;;;;;19.07;60.65;100389.38;5031398;28;20095;-71
2021/07/24 03:09:20;;;;;;;14.50;5.35;;;;;;;18.97;60.87;100386.78;5031160;28;20037;-70
2021/07/24 03:11:45;;;;;;;10.18;5.25;;;;;;;18.91;61.23;100395.47;5031209;28;20109;-70
2021/07/24 03:14:11;;;;;;;16.52;5.60;;;;;;;18.86;61.73;100387.56;5031093;28;20091;-71
2021/07/24 03:16:36;;;;;;;16.00;5.55;;;;;;;18.82;61.43;100398.06;5030986;28;20026;-70
2021/07/24 03:19:02;;;;;;;12.88;5.60;;;;;;;18.73;61.24;100391.91;5030725;28;20079;-72
2021/07/24 03:21:29;;;;;;;9.57;5.35;;;;;;;18.70;61.27;100378.81;5031235;28;20108;-72
2021/07/24 03:23:55;;;;;;;20.20;6.15;;;;;;;18.73;61.42;100399.75;5030898;28;20113;-70
2021/07/24 03:26:21;;;;;;;19.30;6.00;;;;;;;18.85;60.91;100395.44;5030666;28;20053;-71
2021/07/24 03:28:46;;;;;;;14.52;5.90;;;;;;;18.81;60.96;100393.69;5031022;28;20040;-71
2021/07/24 03:31:12;;;;;;;17.00;5.93;;;;;;;18.70;62.20;100402.34;5031093;28;20460;-69
2021/07/24 03:33:38;;;;;;;13.50;5.43;;;;;;;18.61;62.66;100399.72;5030701;28;20091;-69
2021/07/24 03:36:04;;;;;;;17.10;5.72;;;;;;;18.54;63.11;100401.47;5031139;28;20038;-70
2021/07/24 03:38:31;;;;;;;10.30;5.10;;;;;;;18.69;62.72;100400.63;5030941;28;20034;-69
2021/07/24 03:40:56;;;;;;;11.57;4.93;;;;;;;18.59;62.52;100394.50;5028939;28;20037;-69
2021/07/24 03:43:22;;;;;;;13.63;5.40;;;;;;;18.71;62.25;100395.41;5020694;28;20033;-70
2021/07/24 03:45:50;;;;;;;12.40;5.40;;;;;;;18.84;62.01;100402.41;5011004;28;20026;-69
2021/07/24 03:48:16;;;;;;;8.30;4.93;;;;;;;18.94;61.58;100405.06;5010980;28;20069;-69
2021/07/24 03:50:42;;;;;;;13.65;5.00;;;;;;;19.00;61.37;100399.84;5011116;28;20135;-70
2021/07/24 03:53:08;;;;;;;10.88;4.95;;;;;;;19.01;61.41;100412.06;5010746;28;20561;-70
2021/07/24 03:55:34;;;;;;;10.38;4.88;;;;;;;18.87;61.33;100384.09;5010922;28;20053;-69
2021/07/24 03:58:01;;;;;;;11.27;4.50;;;;;;;18.87;61.52;100378.84;5011086;28;20101;-69
2021/07/24 04:00:26;;;;;;;10.18;5.05;;;;;;;18.98;61.67;100417.25;5010646;28;20460;-71
2021/07/24 04:02:52;;;;;;;13.68;5.78;;;;;;;18.92;62.34;100413.78;5013751;28;20105;-70
2021/07/24 04:05:18;;;;;;;11.95;4.72;;;;;;;18.92;62.09;100413.78;5014444;28;20112;-69
2021/07/24 04:07:44;;;;;;;9.43;4.82;;;;;;;18.89;62.63;100405.00;5014534;28;20109;-70
2021/07/24 04:10:11;;;;;;;11.40;5.10;;;;;;;18.89;62.83;100411.13;5016632;28;20517;-71
2021/07/24 04:12:41;;;;;;;9.68;5.10;;;;;;;18.89;62.85;100410.25;5019591;28;20037;-74
2021/07/24 04:15:07;;;;;;;;;;;;;;;18.81;63.27;100415.47;5031611;28;20017;-70
2021/07/24 04:17:33;;;;;;;8.90;5.03;;;;;;;18.74;63.48;100414.59;5033604;28;19913;-69
2021/07/24 04:19:59;;;;;;;7.40;4.72;;;;;;;18.62;63.68;100417.16;5016682;28;20029;-73
2021/07/24 04:22:24;;;;;;;9.23;4.88;;;;;;;18.49;64.13;100410.16;5034146;28;20472;-69
2021/07/24 04:24:50;;;;;;;8.57;5.15;;;;;;;18.27;65.21;100418.78;5033850;28;20025;-69
2021/07/24 04:27:15;;;;;;;8.02;4.85;;;;;;;18.19;65.71;100414.38;5033379;28;20496;-69
2021/07/24 04:29:41;;;;;;;7.85;4.60;;;;;;;18.08;65.96;100406.47;5033420;28;20025;-69
2021/07/24 04:32:06;;;;;;;9.50;4.57;;;;;;;17.90;66.92;100404.63;5033676;28;20037;-69
2021/07/24 04:34:32;;;;;;;9.60;4.75;;;;;;;18.01;67.17;100420.41;5033596;28;20026;-72
2021/07/24 04:36:58;;;;;;;8.18;4.70;;;;;;;18.03;67.36;100416.94;5033716;28;20025;-70
2021/07/24 04:39:23;;;;;;;9.57;5.68;;;;;;;18.10;67.48;100416.06;5033638;28;20490;-69
2021/07/24 04:41:49;;;;;;;9.43;5.30;;;;;;;18.06;67.90;100413.47;5034088;28;20036;-69
2021/07/24 04:44:15;;;;;;;11.15;6.22;;;;;;;17.84;68.21;100386.31;5033651;28;20022;-69
2021/07/24 04:46:40;;;;;;;14.38;6.57;;;;;;;18.15;68.29;100415.25;4998546;28;20068;-69
2021/07/24 04:49:06;;;;;;;11.35;5.78;;;;;;;18.12;68.24;100429.16;5033859;28;20506;-70
2021/07/24 04:51:33;;;;;;;10.73;6.63;;;;;;;18.12;68.63;100418.72;5033624;28;20091;-69
2021/07/24 04:53:59;;;;;;;11.32;6.22;;;;;;;17.86;69.50;100397.66;5033215;28;20136;-69
2021/07/24 04:56:26;;;;;;;7.38;5.55;;;;;;;18.02;69.73;100419.50;5033497;28;20585;-70
2021/07/24 04:58:52;;;;;;;13.48;6.05;;;;;;;18.12;69.69;100423.94;5033492;28;20021;-69
2021/07/24 05:01:21;;;;;;;13.52;5.90;;;;;;;18.31;69.45;100421.41;5033027;28;20030;-69
2021/07/24 05:03:48;;;;;;;7.85;5.85;;;;;;;18.33;69.32;100417.06;5033005;28;20030;-70
2021/07/24 05:06:14;;;;;;;10.05;5.30;;;;;;;18.39;69.20;100417.06;5032923;28;20034;-69
2021/07/24 05:08:39;;;;;;;9.48;5.03;;;;;;;18.42;69.33;100411.88;5033441;28;20025;-72
2021/07/24 05:11:05;;;;;;;12.43;5.45;;;;;;;18.58;68.90;100418.91;5033133;28;20022;-69
2021/07/24 05:13:50;;;;;;;10.75;5.50;;;;;;;18.50;69.11;100407.53;5032873;28;20036;-69
2021/07/24 05:16:15;;;;;;;12.23;5.60;;;;;;;18.79;68.65;100416.34;5010651;28;20060;-72
2021/07/24 05:18:41;;;;;;;8.27;5.35;;;;;;;18.97;68.52;100421.63;5004236;28;20137;-69
2021/07/24 05:21:06;;;;;;;10.80;5.43;;;;;;;18.82;69.12;100419.84;4998523;28;20039;-69
2021/07/24 05:23:32;;;;;;;11.30;5.30;;;;;;;18.96;68.64;100419.88;4991195;28;20038;-69
2021/07/24 05:25:57;;;;;;;8.75;4.90;;;;;;;19.16;68.08;100419.91;4991079;28;20034;-72
2021/07/24 05:28:23;;;;;;;9.80;5.43;;;;;;;19.23;68.40;100420.81;4990907;28;20139;-69
2021/07/24 05:30:48;;;;;;;9.40;5.57;;;;;;;19.37;68.14;100415.56;4990989;28;20043;-69
2021/07/24 05:33:14;;;;;;;10.75;5.00;;;;;;;19.56;67.50;100421.66;4990876;28;20034;-70
2021/07/24 05:35:42;;;;;;;8.82;5.38;;;;;;;19.66;67.65;100420.75;4990907;28;20528;-72
2021/07/24 05:38:07;;;;;;;9.63;5.30;;;;;;;19.80;66.58;100423.38;4991021;28;20131;-69
2021/07/24 05:40:33;;;;;;;11.27;5.63;;;;;;;19.93;66.33;100423.41;4990797;28;20088;-69
2021/07/24 05:43:01;;;;;;;8.70;5.00;;;;;;;20.06;66.09;100416.38;4987023;28;20042;-69
2021/07/24 05:45:27;;;;;;;8.05;5.55;;;;;;;20.06;66.85;100419.84;4990821;28;20109;-69
2021/07/24 05:47:52;;;;;;;12.02;6.50;;;;;;;20.10;66.59;100418.09;5007296;28;20056;-70
2021/07/24 05:50:18;;;;;;;12.90;5.80;;;;;;;20.07;67.04;100413.72;5012573;28;20034;-68
2021/07/24 05:52:43;;;;;;;8.93;6.00;;;;;;;20.23;66.43;100421.56;5012352;28;20053;-68
2021/07/24 05:55:09;;;;;;;9.23;5.93;;;;;;;20.00;67.24;100417.25;5012495;28;20108;-68
2021/07/24 05:57:38;;;;;;;12.10;7.32;;;;;;;20.00;67.96;100422.47;5012314;28;20041;-69
2021/07/24 06:00:05;;;;;;;9.05;5.97;;;;;;;20.28;66.77;100425.88;5012289;28;20488;-69
2021/07/24 06:02:30;;;;;;;9.32;5.22;;;;;;;20.48;66.16;100410.06;4993824;28;20034;-70
2021/07/24 06:04:55;;;;;;;12.73;5.38;;;;;;;20.67;66.01;100417.84;5012265;28;20025;-68
2021/07/24 06:07:21;;;;;;;9.50;6.95;;;;;;;20.44;65.94;100368.16;5012343;28;20056;-69
2021/07/24 06:09:46;;;;;;;10.93;6.45;;;;;;;20.90;66.89;100420.38;5011841;28;20076;-69
2021/07/24 06:12:12;;;;;;;10.30;5.63;;;;;;;21.01;65.93;100415.06;5012320;28;20029;-69
2021/07/24 06:14:37;;;;;;;12.48;8.50;;;;;;;21.04;64.87;100403.66;5010150;28;20566;-69
2021/07/24 06:17:04;;;;;;;10.95;6.05;;;;;;;21.30;64.05;100408.72;5012260;28;20092;-70
2021/07/24 06:19:30;;;;;;;13.07;6.35;;;;;;;21.51;63.12;100402.41;5012230;28;20026;-73
2021/07/24 06:21:55;;;;;;;9.23;6.68;;;;;;;21.71;62.44;100396.09;4996023;28;20026;-70
2021/07/24 06:24:21;;;;;;;10.02;7.20;;;;;;;21.81;62.38;100392.50;5033192;28;20044;-69
2021/07/24 06:26:46;;;;;;;9.82;5.75;;;;;;;21.98;62.07;100401.06;5031841;28;20025;-71
2021/07/24 06:29:12;;;;;;;7.45;4.75;;;;;;;21.96;62.28;100394.09;5031377;28;20033;-71
2021/07/24 06:31:40;;;;;;;10.85;5.18;;;;;;;22.04;62.61;100397.47;5031419;28;20036;-69
2021/07/24 06:34:05;;;;;;;9.45;5.00;;;;;;;22.17;60.92;100390.34;5031319;28;20083;-69
2021/07/24 06:36:31;;;;;;;14.18;5.50;;;;;;;22.13;61.40;100393.88;5013692;28;20030;-69
2021/07/24 06:38:57;;;;;;;8.95;5.32;;;;;;;22.26;61.33;100397.25;5031165;28;20033;-70
2021/07/24 06:41:26;;;;;;;9.25;5.20;;;;;;;22.22;61.53;100403.41;5031553;28;20021;-69
2021/07/24 06:43:53;;;;;;;14.00;7.88;;;;;;;22.32;59.94;100383.13;5014119;28;20117;-69
2021/07/24 06:46:20;;;;;;;22.55;12.15;;;;;;;22.53;59.52;100403.94;5031282;28;20114;-70
2021/07/24 06:48:45;;;;;;;9.68;6.10;;;;;;;22.77;58.63;100396.59;5034469;28;20036;-70
2021/07/24 06:51:11;;;;;;;9.68;6.45;;;;;;;22.91;57.68;100393.75;5006745;28;20419;-70
2021/07/24 06:53:37;;;;;;;7.13;4.30;;;;;;;22.94;55.81;100393.69;5039562;28;20049;-68
2021/07/24 06:56:03;;;;;;;7.55;4.35;;;;;;;22.93;55.95;100373.53;5041680;28;20051;-72
2021/07/24 06:58:28;;;;;;;9.07;4.45;;;;;;;23.10;55.72;100397.84;5041174;28;20428;-73
2021/07/24 07:00:54;;;;;;;7.65;4.15;;;;;;;23.12;54.68;100389.91;5039537;28;20057;-69
2021/07/24 07:03:20;;;;;;;10.25;4.78;;;;;;;23.33;54.09;100386.06;5041654;28;20021;-70
2021/07/24 07:05:45;;;;;;;8.18;4.95;;;;;;;23.42;53.47;100385.03;5040387;28;20040;-71
2021/07/24 07:08:11;;;;;;;9.38;5.32;;;;;;;23.45;53.04;100369.16;5040424;28;20021;-70
2021/07/24 07:10:36;;;;;;;8.98;6.28;;;;;;;23.54;54.54;100397.09;5024093;28;20562;-70
2021/07/24 07:13:02;;;;;;;8.70;5.00;;;;;;;23.48;52.54;100376.13;5040333;28;20018;-70
2021/07/24 07:15:28;;;;;;;11.00;4.05;;;;;;;23.44;49.25;100367.44;5040647;28;20035;-70
2021/07/24 07:17:55;;;;;;;6.20;3.97;;;;;;;23.77;48.49;100388.78;5040905;28;20028;-71
2021/07/24 07:20:21;;;;;;;7.78;4.65;;;;;;;23.92;48.20;100382.38;5036863;28;20080;-73
2021/07/24 07:22:46;;;;;;;8.20;4.68;;;;;;;24.06;49.84;100377.72;5022615;28;20029;-71
2021/07/24 07:25:13;;;;;;;9.80;4.63;;;;;;;24.33;49.55;100385.94;5040546;28;20021;-72
2021/07/24 07:27:42;;;;;;;12.60;4.93;;;;;;;24.50;48.38;100387.31;4997572;28;20034;-70
2021/07/24 07:30:09;;;;;;;6.85;4.85;;;;;;;24.54;50.58;100379.31;4999409;28;20459;-71
2021/07/24 07:32:34;;;;;;;9.38;4.80;;;;;;;24.61;46.37;100389.75;4999513;28;20181;-69
2021/07/24 07:35:00;;;;;;;10.23;5.00;;;;;;;24.68;46.92;100381.66;4997530;28;20030;-69
2021/07/24 07:37:25;;;;;;;13.77;6.03;;;;;;;24.64;48.95;100389.69;5001366;28;20038;-69
2021/07/24 07:39:51;;;;;;;17.85;7.85;;;;;;;24.53;46.97;100387.28;5002583;28;20026;-71
2021/07/24 07:42:16;;;;;;;22.45;8.57;;;;;;;24.63;44.59;100366.81;5001474;28;20121;-69
2021/07/24 07:44:42;;;;;;;16.83;4.40;;;;;;;24.81;44.61;100366.44;5003420;28;20030;-71
2021/07/24 07:47:07;;;;;;;12.25;4.43;;;;;;;25.07;45.72;100391.31;5002218;28;20041;-69
2021/07/24 07:49:33;;;;;;;13.35;6.03;;;;;;;25.12;47.29;100386.81;5002071;28;20496;-70
2021/07/24 07:51:58;;;;;;;13.45;4.63;;;;;;;25.33;45.29;100385.41;5003296;28;20038;-69
2021/07/24 07:54:24;;;;;;;7.80;2.65;;;;;;;25.56;37.36;100376.03;4992338;28;20524;-69
2021/07/24 07:56:49;;;;;;;8.93;2.75;;;;;;;25.42;38.92;100357.00;5000375;28;20056;-68
2021/07/24 07:59:15;;;;;;;5.82;2.50;;;;;;;25.59;40.21;100360.06;5032492;28;20095;-72
2021/07/24 08:01:40;;;;;;;21.75;11.48;;;;;;;25.83;40.31;100378.81;5045569;28;20021;-70
2021/07/24 08:04:06;;;;;;;13.63;5.63;;;;;;;25.86;42.72;100378.75;5044357;28;20025;-72
2021/07/24 08:06:31;;;;;;;33.08;12.18;;;;;;;25.94;42.41;100381.16;5044429;28;20471;-73
2021/07/24 08:08:58;;;;;;;8.65;4.05;;;;;;;25.80;44.36;100387.69;5043133;28;20044;-70
2021/07/24 08:11:25;;;;;;;13.95;5.40;;;;;;;25.86;42.67;100383.16;5040749;28;20083;-75
2021/07/24 08:13:54;;;;;;;12.65;3.70;;;;;;;25.93;41.48;100385.59;5043695;28;20112;-70
2021/07/24 08:16:20;;;;;;;8.63;3.35;;;;;;;26.06;41.35;100372.06;5045196;28;20060;-70
2021/07/24 08:18:45;;;;;;;12.27;3.20;;;;;;;26.19;41.28;100380.50;5042899;28;20060;-70
2021/07/24 08:21:11;;;;;;;12.60;3.58;;;;;;;26.27;40.06;100371.41;5043582;28;20040;-72
2021/07/24 08:23:36;;;;;;;8.60;4.05;;;;;;;26.43;40.67;100382.41;5044445;28;20530;-70
2021/07/24 08:26:02;;;;;;;11.52;3.50;;;;;;;26.54;41.38;100373.25;5042238;28;20025;-71
2021/07/24 08:28:28;;;;;;;6.82;3.35;;;;;;;26.65;39.71;100373.78;5037160;28;20458;-71
2021/07/24 08:30:54;;;;;;;8.25;3.90;;;;;;;26.61;41.17;100373.03;5035887;28;20112;-70
2021/07/24 08:33:20;;;;;;;9.82;3.50;;;;;;;26.61;39.67;100373.03;5036106;28;20166;-72
2021/07/24 08:35:45;;;;;;;9.65;2.60;;;;;;;26.76;39.72;100373.50;5046024;28;20560;-69
2021/07/24 08:38:10;;;;;;;6.63;2.58;;;;;;;26.76;36.40;100377.00;5037134;28;20511;-71
2021/07/24 08:40:39;;;;;;;11.98;4.80;;;;;;;26.83;37.41;100361.78;5038358;28;20691;-74
2021/07/24 08:43:07;;;;;;;10.65;2.78;;;;;;;26.80;37.22;100368.06;5049111;28;20080;-73
2021/07/24 08:45:36;;;;;;;4.68;2.50;;;;;;;26.76;36.38;100374.34;5048183;28;20078;-70
2021/07/24 08:48:06;;;;;;;5.10;2.50;;;;;;;26.94;38.12;100364.94;5043350;28;20403;-72
2021/07/24 08:50:33;;;;;;;;;;;;;;;26.93;35.55;100360.56;5036706;28;20403;-70
2021/07/24 08:53:03;;;;;;;11.38;4.22;;;;;;;27.10;36.69;100372.38;5037363;28;19912;-67
2021/07/24 08:55:29;;;;;;;10.15;4.55;;;;;;;27.07;38.47;100370.69;5027747;28;20108;-68
2021/07/24 08:57:58;;;;;;;20.30;9.27;;;;;;;27.18;34.67;100349.16;5027395;28;20108;-69
2021/07/24 09:00:26;;;;;;;6.47;3.17;;;;;;;27.27;34.50;100355.91;5027823;28;20017;-68
2021/07/24 09:02:53;;;;;;;7.22;3.53;;;;;;;27.39;36.61;100363.44;5028666;28;20025;-70
2021/07/24 09:05:19;;;;;;;5.53;2.60;;;;;;;27.33;36.79;100360.13;5029594;28;20738;-70
2021/07/24 09:07:50;;;;;;;14.48;4.32;;;;;;;27.44;35.35;100366.84;5026441;28;20025;-67
2021/07/24 09:10:16;;;;;;;6.45;2.63;;;;;;;27.51;36.63;100364.81;5031503;28;20522;-68
2021/07/24 09:12:47;;;;;;;5.57;2.58;;;;;;;27.58;33.10;100361.03;5025816;28;20033;-69
2021/07/24 09:15:16;;;;;;;12.63;6.00;;;;;;;27.76;32.88;100355.97;5029407;28;20030;-66
2021/07/24 09:17:41;;;;;;;11.90;5.15;;;;;;;27.96;35.08;100365.84;5026188;28;20468;-71
2021/07/24 09:20:08;;;;;;;4.68;2.70;;;;;;;27.94;36.24;100357.09;5028938;28;20025;-68
2021/07/24 09:22:36;;;;;;;9.40;2.45;;;;;;;27.88;34.08;100346.72;5030439;28;20056;-67
2021/07/24 09:25:07;;;;;;;9.75;2.75;;;;;;;28.04;34.24;100347.91;5030665;28;20021;-70
2021/07/24 09:27:36;;;;;;;7.30;2.58;;;;;;;28.18;34.71;100352.69;5030459;28;20040;-69
2021/07/24 09:30:03;;;;;;;;;;;;;;;28.28;33.20;100352.34;5026198;28;20491;-68
2021/07/24 09:32:29;;;;;;;11.68;3.75;;;;;;;27.97;33.29;100308.38;5029754;28;19913;-69
2021/07/24 09:34:54;;;;;;;13.25;3.80;;;;;;;28.46;32.87;100345.44;5029364;28;20128;-69
2021/07/24 09:37:28;;;;;;;8.50;3.20;;;;;;;28.68;33.10;100345.47;5030247;28;20097;-69
2021/07/24 09:39:58;;;;;;;11.05;4.20;;;;;;;28.77;33.93;100344.22;5028203;28;20495;-67
2021/07/24 09:42:33;;;;;;;7.82;2.67;;;;;;;28.66;33.38;100326.91;5027782;28;20021;-69
2021/07/24 09:45:07;;;;;;;7.50;2.58;;;;;;;28.93;33.20;100347.97;5025744;28;20522;-70
2021/07/24 09:47:32;;;;;;;7.93;2.72;;;;;;;28.85;31.47;100318.22;5026479;28;20087;-69
2021/07/24 09:50:15;;;;;;;8.48;3.67;;;;;;;29.04;33.36;100318.31;5026657;28;20108;-69
2021/07/24 09:52:49;;;;;;;12.88;3.60;;;;;;;29.06;32.61;100329.75;5028667;28;20624;-68
2021/07/24 09:55:20;;;;;;;11.13;4.80;;;;;;;29.24;32.51;100325.41;4991744;28;20073;-70
2021/07/24 09:57:45;;;;;;;10.18;3.17;;;;;;;29.28;32.51;100323.50;5010466;28;20029;-67
2021/07/24 10:00:28;;;;;;;36.50;9.65;;;;;;;29.44;33.76;100327.22;5008815;28;20411;-69
2021/07/24 10:02:58;;;;;;;5.65;3.40;;;;;;;29.58;32.36;100331.94;5007756;28;20018;-69
2021/07/24 10:05:32;;;;;;;25.80;9.25;;;;;;;29.57;32.27;100306.25;5008438;28;20034;-69
2021/07/24 10:08:03;;;;;;;7.13;2.90;;;;;;;29.89;29.41;100327.91;5010236;28;20125;-68
2021/07/24 10:10:30;;;;;;;6.20;2.40;;;;;;;29.79;30.14;100323.91;4972632;28;20125;-68
2021/07/24 10:12:56;;;;;;;6.53;2.78;;;;;;;29.50;31.91;100318.13;5008120;28;20377;-70
2021/07/24 10:15:24;;;;;;;13.27;7.63;;;;;;;29.45;32.28;100291.72;5008846;28;20029;-70
2021/07/24 10:17:50;;;;;;;15.27;5.50;;;;;;;29.88;29.67;100326.16;4990117;28;20108;-73
2021/07/24 10:20:17;;;;;;;8.35;3.90;;;;;;;30.10;29.93;100315.41;5010074;28;20109;-70
2021/07/24 10:22:43;;;;;;;7.80;2.53;;;;;;;30.01;31.26;100322.03;5009711;28;20084;-70
2021/07/24 10:25:09;;;;;;;7.03;3.15;;;;;;;29.94;30.18;100317.91;5006679;28;20025;-72
2021/07/24 10:27:37;;;;;;;6.72;2.58;;;;;;;29.81;31.76;100256.41;4973776;28;20451;-70
2021/07/24 10:30:05;;;;;;;4.35;2.38;;;;;;;30.46;29.45;100313.72;5009319;28;20540;-70
2021/07/24 10:32:34;;;;;;;5.63;2.60;;;;;;;30.33;28.98;100301.00;4996837;28;20034;-70
2021/07/24 10:35:00;;;;;;;;;;;;;;;30.38;29.27;100303.44;4992322;28;20046;-66
2021/07/24 10:37:35;;;;;;;5.30;2.58;;;;;;;30.62;30.63;100317.38;4991748;28;19957;-67
2021/07/24 10:40:25;;;;;;;10.95;2.85;;;;;;;30.32;30.53;100301.94;5008022;28;20026;-71
2021/07/24 10:42:51;;;;;;;7.97;3.10;;;;;;;30.46;28.53;100309.25;5006042;28;20033;-68
2021/07/24 10:45:37;;;;;;;10.90;3.38;;;;;;;30.45;27.92;100296.00;5002061;28;20115;-68
2021/07/24 10:48:19;;;;;;;6.07;3.80;;;;;;;30.58;30.12;100301.63;5010626;28;20132;-67
2021/07/24 10:50:54;;;;;;;6.93;2.65;;;;;;;30.56;30.68;100295.53;5008433;28;20026;-72
2021/07/24 10:53:21;;;;;;;8.13;2.88;;;;;;;30.48;31.14;100246.16;4994814;28;20050;-69
2021/07/24 10:55:49;;;;;;;7.05;2.70;;;;;;;30.60;30.58;100287.28;5023524;28;20037;-70
2021/07/24 10:58:16;;;;;;;5.00;2.38;;;;;;;30.21;29.79;100274.97;5027429;28;20025;-68
2021/07/24 11:00:51;;;;;;;14.68;3.67;;;;;;;30.32;30.58;100288.63;5027302;28;20022;-67
2021/07/24 11:03:36;;;;;;;12.00;3.80;;;;;;;30.72;28.58;100279.59;5020948;28;20041;-68
2021/07/24 11:06:26;;;;;;;31.73;6.20;;;;;;;31.15;28.76;100282.78;5026520;28;20025;-69
2021/07/24 11:08:58;;;;;;;6.13;2.63;;;;;;;31.34;29.58;100292.47;5024357;28;20022;-72
2021/07/24 11:12:05;;;;;;;7.55;2.67;;;;;;;31.11;28.94;100283.88;5031785;28;20411;-71
2021/07/24 11:14:30;;;;;;;14.05;2.42;;;;;;;31.11;27.78;100284.72;5028250;28;20041;-70
2021/07/24 11:19:31;;;;;;;6.47;3.13;;;;;;;30.59;30.18;100290.03;5029412;28;20028;-66
2021/07/24 11:22:22;;;;;;;5.13;2.67;;;;;;;30.87;30.14;100289.50;5031740;28;20108;-70
2021/07/24 11:24:50;;;;;;;3.88;2.38;;;;;;;31.00;28.47;100260.41;5031047;28;20502;-71
2021/07/24 11:27:29;;;;;;;6.68;3.42;;;;;;;31.04;27.56;100286.00;5032045;28;20025;-72
2021/07/24 11:30:09;;;;;;;10.52;3.00;;;;;;;31.08;29.41;100281.38;5030075;28;20518;-70